San Francisco, California
Traffic Map
Current Weather Conditions
San Francisco, California
Overcast
Overcast
59°
Feels Like: 59°
Wind Chill: 59° Ceiling: 1000
Heat Index: 59° Visibility: 10mi
Dew Point: 55° Wind: 3mph
Humidity: 87% Direction: 190° (S)
Pressure: 29.91in Gusts: 0mph
Raw Report DataKSFO 191256Z 19003KT 10SM OVC010 15/13 A2991 RMK AO2 SLP128 T01500128 $
Traffic Incident Summary
Active as of:
Severity:
Category:
InformationThere was an issue retrieving the traffic information for this location. Please try a different location or try again shortly.
Advertisements